sensor_id;sensor_type;location;lat;lon;timestamp;pressure;altitude;pressure_sealevel;temperature;humidity
7309;BME280;3695;53.330;9.876;2023-08-12T00:00:53;100250.38;;;13.48;nan
7309;BME280;3695;53.330;9.876;2023-08-12T00:03:20;100153.78;;;13.73;nan
7309;BME280;3695;53.330;9.876;2023-08-12T00:05:47;100191.44;;;13.59;nan
7309;BME280;3695;53.330;9.876;2023-08-12T00:08:13;100213.00;;;13.44;nan
7309;BME280;3695;53.330;9.876;2023-08-12T00:10:39;100174.00;;;13.60;nan
7309;BME280;3695;53.330;9.876;2023-08-12T00:13:07;100163.88;;;13.55;nan
7309;BME280;3695;53.330;9.876;2023-08-12T00:15:34;100183.69;;;13.51;nan
7309;BME280;3695;53.330;9.876;2023-08-12T00:18:00;100132.09;;;13.61;nan
7309;BME280;3695;53.330;9.876;2023-08-12T00:20:29;100138.63;;;13.60;nan
7309;BME280;3695;53.330;9.876;2023-08-12T00:22:56;100150.00;;;13.57;nan
7309;BME280;3695;53.330;9.876;2023-08-12T00:25:22;100144.56;;;13.57;nan
7309;BME280;3695;53.330;9.876;2023-08-12T00:27:48;100155.59;;;13.45;nan
7309;BME280;3695;53.330;9.876;2023-08-12T00:30:16;100175.47;;;13.46;nan
7309;BME280;3695;53.330;9.876;2023-08-12T00:32:43;100116.91;;;13.65;nan
7309;BME280;3695;53.330;9.876;2023-08-12T00:35:09;100152.09;;;13.50;nan
7309;BME280;3695;53.330;9.876;2023-08-12T00:37:36;100140.41;;;13.49;nan
7309;BME280;3695;53.330;9.876;2023-08-12T00:40:03;100167.31;;;13.46;nan
7309;BME280;3695;53.330;9.876;2023-08-12T00:42:29;100131.72;;;13.52;nan
7309;BME280;3695;53.330;9.876;2023-08-12T00:44:56;100046.22;;;13.75;nan
7309;BME280;3695;53.330;9.876;2023-08-12T00:47:24;100090.19;;;13.62;nan
7309;BME280;3695;53.330;9.876;2023-08-12T00:49:51;100104.81;;;13.56;nan
7309;BME280;3695;53.330;9.876;2023-08-12T00:52:18;100087.97;;;13.59;nan
7309;BME280;3695;53.330;9.876;2023-08-12T00:54:44;100105.06;;;13.54;nan
7309;BME280;3695;53.330;9.876;2023-08-12T00:57:11;100087.97;;;13.59;nan
7309;BME280;3695;53.330;9.876;2023-08-12T00:59:39;100055.41;;;13.69;nan
7309;BME280;3695;53.330;9.876;2023-08-12T01:02:08;100132.94;;;13.40;nan
7309;BME280;3695;53.330;9.876;2023-08-12T01:04:36;100085.19;;;13.54;nan
7309;BME280;3695;53.330;9.876;2023-08-12T01:07:02;100108.50;;;13.45;nan
7309;BME280;3695;53.330;9.876;2023-08-12T01:09:29;100157.28;;;13.30;nan
7309;BME280;3695;53.330;9.876;2023-08-12T01:12:03;100149.97;;;13.30;nan
7309;BME280;3695;53.330;9.876;2023-08-12T01:14:37;100130.16;;;13.35;nan
7309;BME280;3695;53.330;9.876;2023-08-12T01:17:07;100163.72;;;13.23;nan
7309;BME280;3695;53.330;9.876;2023-08-12T01:19:38;100181.63;;;13.19;nan
7309;BME280;3695;53.330;9.876;2023-08-12T01:22:08;100172.38;;;13.20;nan
7309;BME280;3695;53.330;9.876;2023-08-12T01:24:36;100172.63;;;13.19;nan
7309;BME280;3695;53.330;9.876;2023-08-12T01:27:04;100176.66;;;13.16;nan
7309;BME280;3695;53.330;9.876;2023-08-12T01:29:31;100182.69;;;13.18;nan
7309;BME280;3695;53.330;9.876;2023-08-12T01:32:04;100173.69;;;13.18;nan
7309;BME280;3695;53.330;9.876;2023-08-12T01:34:39;100097.28;;;13.41;nan
7309;BME280;3695;53.330;9.876;2023-08-12T01:37:08;100095.91;;;13.39;nan
7309;BME280;3695;53.330;9.876;2023-08-12T01:39:38;100113.50;;;13.31;nan
7309;BME280;3695;53.330;9.876;2023-08-12T01:42:06;100131.97;;;13.29;nan
7309;BME280;3695;53.330;9.876;2023-08-12T01:44:33;100115.16;;;13.32;nan
7309;BME280;3695;53.330;9.876;2023-08-12T01:46:59;100069.25;;;13.41;nan
7309;BME280;3695;53.330;9.876;2023-08-12T01:49:26;100118.28;;;13.24;nan
7309;BME280;3695;53.330;9.876;2023-08-12T01:51:52;100169.75;;;13.09;nan
7309;BME280;3695;53.330;9.876;2023-08-12T01:54:19;100190.03;;;13.01;nan
7309;BME280;3695;53.330;9.876;2023-08-12T01:56:47;100195.47;;;13.01;nan
7309;BME280;3695;53.330;9.876;2023-08-12T01:59:13;100122.91;;;13.23;nan
7309;BME280;3695;53.330;9.876;2023-08-12T02:01:39;100154.50;;;13.08;nan
7309;BME280;3695;53.330;9.876;2023-08-12T02:04:06;100139.56;;;13.10;nan
7309;BME280;3695;53.330;9.876;2023-08-12T02:06:32;100099.06;;;13.14;nan
7309;BME280;3695;53.330;9.876;2023-08-12T02:08:59;100098.25;;;13.13;nan
7309;BME280;3695;53.330;9.876;2023-08-12T02:11:25;100082.34;;;13.22;nan
7309;BME280;3695;53.330;9.876;2023-08-12T02:13:53;100070.97;;;13.25;nan
7309;BME280;3695;53.330;9.876;2023-08-12T02:16:19;100113.44;;;13.09;nan
7309;BME280;3695;53.330;9.876;2023-08-12T02:18:46;100059.84;;;13.27;nan
7309;BME280;3695;53.330;9.876;2023-08-12T02:21:13;100081.41;;;13.16;nan
7309;BME280;3695;53.330;9.876;2023-08-12T02:23:39;100156.16;;;12.92;nan
7309;BME280;3695;53.330;9.876;2023-08-12T02:26:06;100087.94;;;13.15;nan
7309;BME280;3695;53.330;9.876;2023-08-12T02:28:32;100118.81;;;13.04;nan
7309;BME280;3695;53.330;9.876;2023-08-12T02:31:00;100154.28;;;12.92;nan
7309;BME280;3695;53.330;9.876;2023-08-12T02:33:26;100066.34;;;13.26;nan
7309;BME280;3695;53.330;9.876;2023-08-12T02:35:53;100153.78;;;12.96;nan
7309;BME280;3695;53.330;9.876;2023-08-12T02:38:20;100151.31;;;12.94;nan
7309;BME280;3695;53.330;9.876;2023-08-12T02:40:47;100154.28;;;12.92;nan
7309;BME280;3695;53.330;9.876;2023-08-12T02:43:14;100098.19;;;13.08;nan
7309;BME280;3695;53.330;9.876;2023-08-12T02:45:40;100092.25;;;13.11;nan
7309;BME280;3695;53.330;9.876;2023-08-12T02:48:09;100031.53;;;13.28;nan
7309;BME280;3695;53.330;9.876;2023-08-12T02:50:36;100028.25;;;13.26;nan
7309;BME280;3695;53.330;9.876;2023-08-12T02:53:03;100076.22;;;13.15;nan
7309;BME280;3695;53.330;9.876;2023-08-12T02:55:30;100036.66;;;13.24;nan
7309;BME280;3695;53.330;9.876;2023-08-12T02:57:57;100140.59;;;12.87;nan
7309;BME280;3695;53.330;9.876;2023-08-12T03:00:23;100168.28;;;12.84;nan
7309;BME280;3695;53.330;9.876;2023-08-12T03:02:50;100162.78;;;12.79;nan
7309;BME280;3695;53.330;9.876;2023-08-12T03:05:18;100067.69;;;13.06;nan
7309;BME280;3695;53.330;9.876;2023-08-12T03:07:44;100022.84;;;13.09;nan
7309;BME280;3695;53.330;9.876;2023-08-12T03:10:11;99968.44;;;13.31;nan
7309;BME280;3695;53.330;9.876;2023-08-12T03:12:37;99933.78;;;13.48;nan
7309;BME280;3695;53.330;9.876;2023-08-12T03:15:06;99935.41;;;13.49;nan
7309;BME280;3695;53.330;9.876;2023-08-12T03:17:33;99944.09;;;13.46;nan
7309;BME280;3695;53.330;9.876;2023-08-12T03:19:59;99969.88;;;13.38;nan
7309;BME280;3695;53.330;9.876;2023-08-12T03:22:28;99992.44;;;13.34;nan
7309;BME280;3695;53.330;9.876;2023-08-12T03:24:54;100080.16;;;13.02;nan
7309;BME280;3695;53.330;9.876;2023-08-12T03:27:21;100070.66;;;13.05;nan
7309;BME280;3695;53.330;9.876;2023-08-12T03:29:47;100073.63;;;13.03;nan
7309;BME280;3695;53.330;9.876;2023-08-12T03:32:14;100043.25;;;13.11;nan
7309;BME280;3695;53.330;9.876;2023-08-12T03:34:40;100067.94;;;13.05;nan
7309;BME280;3695;53.330;9.876;2023-08-12T03:37:06;100065.53;;;13.08;nan
7309;BME280;3695;53.330;9.876;2023-08-12T03:39:34;100002.19;;;13.30;nan
7309;BME280;3695;53.330;9.876;2023-08-12T03:42:01;99964.75;;;13.42;nan
7309;BME280;3695;53.330;9.876;2023-08-12T03:44:27;99998.91;;;13.28;nan
7309;BME280;3695;53.330;9.876;2023-08-12T03:46:53;100017.38;;;13.26;nan
7309;BME280;3695;53.330;9.876;2023-08-12T03:49:20;99974.81;;;13.41;nan
7309;BME280;3695;53.330;9.876;2023-08-12T03:51:46;99976.34;;;13.32;nan
7309;BME280;3695;53.330;9.876;2023-08-12T03:54:13;100100.13;;;12.91;nan
7309;BME280;3695;53.330;9.876;2023-08-12T03:56:40;100080.41;;;13.01;nan
7309;BME280;3695;53.330;9.876;2023-08-12T03:59:07;100032.22;;;13.18;nan
7309;BME280;3695;53.330;9.876;2023-08-12T04:01:33;99999.50;;;13.35;nan
7309;BME280;3695;53.330;9.876;2023-08-12T04:04:00;100016.09;;;13.33;nan
7309;BME280;3695;53.330;9.876;2023-08-12T04:06:26;99994.06;;;13.35;nan
7309;BME280;3695;53.330;9.876;2023-08-12T04:08:52;100104.81;;;12.96;nan
7309;BME280;3695;53.330;9.876;2023-08-12T04:11:19;100120.81;;;12.92;nan
7309;BME280;3695;53.330;9.876;2023-08-12T04:13:47;100060.97;;;13.14;nan
7309;BME280;3695;53.330;9.876;2023-08-12T04:16:13;100108.94;;;12.98;nan
7309;BME280;3695;53.330;9.876;2023-08-12T04:18:39;100056.19;;;13.21;nan
7309;BME280;3695;53.330;9.876;2023-08-12T04:21:07;100066.16;;;13.15;nan
7309;BME280;3695;53.330;9.876;2023-08-12T04:23:34;100140.09;;;12.90;nan
7309;BME280;3695;53.330;9.876;2023-08-12T04:26:00;100161.69;;;12.80;nan
7309;BME280;3695;53.330;9.876;2023-08-12T04:28:27;100151.66;;;12.81;nan
7309;BME280;3695;53.330;9.876;2023-08-12T04:30:55;100059.44;;;13.18;nan
7309;BME280;3695;53.330;9.876;2023-08-12T04:33:22;100122.97;;;12.90;nan
7309;BME280;3695;53.330;9.876;2023-08-12T04:35:49;100130.53;;;12.88;nan
7309;BME280;3695;53.330;9.876;2023-08-12T04:38:15;100054.16;;;13.11;nan
7309;BME280;3695;53.330;9.876;2023-08-12T04:40:42;99991.00;;;13.26;nan
7309;BME280;3695;53.330;9.876;2023-08-12T04:43:09;100000.41;;;13.18;nan
7309;BME280;3695;53.330;9.876;2023-08-12T04:45:36;100028.28;;;13.09;nan
7309;BME280;3695;53.330;9.876;2023-08-12T04:48:06;99947.03;;;13.39;nan
7309;BME280;3695;53.330;9.876;2023-08-12T04:50:33;99985.97;;;13.18;nan
7309;BME280;3695;53.330;9.876;2023-08-12T04:53:00;99921.66;;;13.34;nan
7309;BME280;3695;53.330;9.876;2023-08-12T04:55:27;100017.59;;;13.02;nan
7309;BME280;3695;53.330;9.876;2023-08-12T04:57:53;100005.63;;;13.03;nan
7309;BME280;3695;53.330;9.876;2023-08-12T05:00:20;99974.50;;;13.16;nan
7309;BME280;3695;53.330;9.876;2023-08-12T05:02:47;99984.25;;;13.12;nan
7309;BME280;3695;53.330;9.876;2023-08-12T05:05:15;99979.09;;;13.15;nan
7309;BME280;3695;53.330;9.876;2023-08-12T05:07:41;99991.56;;;13.11;nan
7309;BME280;3695;53.330;9.876;2023-08-12T05:10:09;100003.53;;;13.10;nan
7309;BME280;3695;53.330;9.876;2023-08-12T05:12:36;100030.63;;;13.00;nan
7309;BME280;3695;53.330;9.876;2023-08-12T05:15:03;99979.75;;;13.22;nan
7309;BME280;3695;53.330;9.876;2023-08-12T05:17:29;100027.38;;;13.03;nan
7309;BME280;3695;53.330;9.876;2023-08-12T05:19:56;100008.97;;;13.10;nan
7309;BME280;3695;53.330;9.876;2023-08-12T05:22:24;100046.44;;;13.03;nan
7309;BME280;3695;53.330;9.876;2023-08-12T05:24:50;100097.91;;;12.88;nan
7309;BME280;3695;53.330;9.876;2023-08-12T05:27:16;100049.22;;;13.08;nan
7309;BME280;3695;53.330;9.876;2023-08-12T05:29:43;100085.59;;;13.02;nan
7309;BME280;3695;53.330;9.876;2023-08-12T05:32:09;100107.28;;;12.97;nan
7309;BME280;3695;53.330;9.876;2023-08-12T05:34:36;100083.16;;;13.22;nan
7309;BME280;3695;53.330;9.876;2023-08-12T05:37:02;100138.91;;;13.03;nan
7309;BME280;3695;53.330;9.876;2023-08-12T05:39:30;100077.88;;;13.33;nan
7309;BME280;3695;53.330;9.876;2023-08-12T05:41:57;100099.94;;;13.36;nan
7309;BME280;3695;53.330;9.876;2023-08-12T05:44:23;100094.13;;;13.49;nan
7309;BME280;3695;53.330;9.876;2023-08-12T05:46:50;100141.03;;;13.35;nan
7309;BME280;3695;53.330;9.876;2023-08-12T05:49:16;100164.78;;;13.39;nan
7309;BME280;3695;53.330;9.876;2023-08-12T05:51:43;100155.84;;;13.44;nan
7309;BME280;3695;53.330;9.876;2023-08-12T05:54:09;100193.25;;;13.32;nan
7309;BME280;3695;53.330;9.876;2023-08-12T05:56:37;100237.19;;;13.23;nan
7309;BME280;3695;53.330;9.876;2023-08-12T05:59:03;100237.28;;;13.29;nan
7309;BME280;3695;53.330;9.876;2023-08-12T06:01:30;100304.28;;;13.01;nan
7309;BME280;3695;53.330;9.876;2023-08-12T06:03:56;100355.44;;;12.87;nan
7309;BME280;3695;53.330;9.876;2023-08-12T06:06:23;100341.63;;;13.06;nan
7309;BME280;3695;53.330;9.876;2023-08-12T06:08:49;100392.50;;;13.05;nan
7309;BME280;3695;53.330;9.876;2023-08-12T06:11:16;100409.69;;;12.94;nan
7309;BME280;3695;53.330;9.876;2023-08-12T06:13:43;100414.84;;;13.07;nan
7309;BME280;3695;53.330;9.876;2023-08-12T06:16:10;100430.19;;;13.25;nan
7309;BME280;3695;53.330;9.876;2023-08-12T06:18:36;100462.47;;;13.21;nan
7309;BME280;3695;53.330;9.876;2023-08-12T06:21:03;100473.06;;;13.35;nan
7309;BME280;3695;53.330;9.876;2023-08-12T06:23:29;100489.50;;;13.40;nan
7309;BME280;3695;53.330;9.876;2023-08-12T06:25:56;100497.13;;;13.54;nan
7309;BME280;3695;53.330;9.876;2023-08-12T06:28:22;100524.78;;;13.63;nan
7309;BME280;3695;53.330;9.876;2023-08-12T06:30:50;100545.09;;;13.44;nan
7309;BME280;3695;53.330;9.876;2023-08-12T06:33:17;100549.78;;;13.32;nan
7309;BME280;3695;53.330;9.876;2023-08-12T06:35:44;100583.75;;;13.29;nan
7309;BME280;3695;53.330;9.876;2023-08-12T06:38:10;100628.63;;;13.55;nan
7309;BME280;3695;53.330;9.876;2023-08-12T06:40:40;100620.25;;;13.85;nan
7309;BME280;3695;53.330;9.876;2023-08-12T06:43:06;100610.94;;;13.98;nan
7309;BME280;3695;53.330;9.876;2023-08-12T06:45:34;100613.00;;;13.91;nan
7309;BME280;3695;53.330;9.876;2023-08-12T06:48:02;100622.41;;;14.00;nan
7309;BME280;3695;53.330;9.876;2023-08-12T06:50:28;100598.56;;;14.07;nan
7309;BME280;3695;53.330;9.876;2023-08-12T06:52:55;100628.34;;;13.97;nan
7309;BME280;3695;53.330;9.876;2023-08-12T06:55:22;100606.66;;;14.02;nan
7309;BME280;3695;53.330;9.876;2023-08-12T06:57:48;100575.69;;;14.08;nan
7309;BME280;3695;53.330;9.876;2023-08-12T07:00:15;100617.81;;;14.17;nan
7309;BME280;3695;53.330;9.876;2023-08-12T07:02:41;100662.50;;;14.16;nan
7309;BME280;3695;53.330;9.876;2023-08-12T07:05:09;100608.50;;;14.30;nan
7309;BME280;3695;53.330;9.876;2023-08-12T07:07:36;100556.66;;;14.25;nan
7309;BME280;3695;53.330;9.876;2023-08-12T07:10:03;100505.59;;;14.20;nan
7309;BME280;3695;53.330;9.876;2023-08-12T07:12:31;100467.81;;;14.45;nan
7309;BME280;3695;53.330;9.876;2023-08-12T07:14:58;100490.97;;;14.43;nan
7309;BME280;3695;53.330;9.876;2023-08-12T07:17:25;100563.81;;;14.31;nan
7309;BME280;3695;53.330;9.876;2023-08-12T07:19:51;100559.03;;;14.55;nan
7309;BME280;3695;53.330;9.876;2023-08-12T07:22:19;100491.69;;;14.55;nan
7309;BME280;3695;53.330;9.876;2023-08-12T07:24:45;100436.13;;;14.61;nan
7309;BME280;3695;53.330;9.876;2023-08-12T07:27:12;100428.97;;;14.55;nan
7309;BME280;3695;53.330;9.876;2023-08-12T07:29:38;100474.75;;;14.36;nan
7309;BME280;3695;53.330;9.876;2023-08-12T07:32:05;100524.00;;;14.13;nan
7309;BME280;3695;53.330;9.876;2023-08-12T07:34:31;100544.34;;;14.22;nan
7309;BME280;3695;53.330;9.876;2023-08-12T07:36:58;100555.72;;;14.53;nan
7309;BME280;3695;53.330;9.876;2023-08-12T07:39:26;100622.47;;;14.33;nan
7309;BME280;3695;53.330;9.876;2023-08-12T07:41:52;100585.16;;;14.51;nan
7309;BME280;3695;53.330;9.876;2023-08-12T07:44:18;100540.00;;;14.76;nan
7309;BME280;3695;53.330;9.876;2023-08-12T07:46:45;100476.56;;;14.86;nan
7309;BME280;3695;53.330;9.876;2023-08-12T07:49:11;100444.59;;;14.82;nan
7309;BME280;3695;53.330;9.876;2023-08-12T07:51:38;100410.50;;;14.84;nan
7309;BME280;3695;53.330;9.876;2023-08-12T07:54:05;100401.75;;;14.82;nan
7309;BME280;3695;53.330;9.876;2023-08-12T07:56:32;100364.94;;;15.11;nan
7309;BME280;3695;53.330;9.876;2023-08-12T07:58:59;100327.91;;;15.21;nan
7309;BME280;3695;53.330;9.876;2023-08-12T08:01:25;100296.25;;;15.20;nan
7309;BME280;3695;53.330;9.876;2023-08-12T08:03:52;100251.50;;;15.21;nan
7309;BME280;3695;53.330;9.876;2023-08-12T08:06:18;100256.34;;;15.14;nan
7309;BME280;3695;53.330;9.876;2023-08-12T08:08:45;100296.81;;;15.22;nan
7309;BME280;3695;53.330;9.876;2023-08-12T08:11:11;100280.44;;;15.22;nan
7309;BME280;3695;53.330;9.876;2023-08-12T08:13:39;100286.50;;;15.29;nan
7309;BME280;3695;53.330;9.876;2023-08-12T08:16:05;100307.84;;;15.37;nan
7309;BME280;3695;53.330;9.876;2023-08-12T08:18:32;100266.28;;;15.30;nan
7309;BME280;3695;53.330;9.876;2023-08-12T08:20:58;100347.91;;;14.99;nan
7309;BME280;3695;53.330;9.876;2023-08-12T08:23:25;100399.03;;;14.82;nan
7309;BME280;3695;53.330;9.876;2023-08-12T08:25:51;100368.81;;;15.16;nan
7309;BME280;3695;53.330;9.876;2023-08-12T08:28:17;100346.03;;;15.32;nan
7309;BME280;3695;53.330;9.876;2023-08-12T08:30:45;100325.34;;;15.41;nan
7309;BME280;3695;53.330;9.876;2023-08-12T08:33:12;100305.16;;;15.42;nan
7309;BME280;3695;53.330;9.876;2023-08-12T08:35:38;100389.91;;;14.98;nan
7309;BME280;3695;53.330;9.876;2023-08-12T08:38:05;100424.81;;;15.18;nan
7309;BME280;3695;53.330;9.876;2023-08-12T08:40:31;100401.75;;;15.36;nan
7309;BME280;3695;53.330;9.876;2023-08-12T08:43:02;100344.16;;;15.37;nan
7309;BME280;3695;53.330;9.876;2023-08-12T08:45:31;100299.72;;;15.47;nan
7309;BME280;3695;53.330;9.876;2023-08-12T08:48:00;100397.34;;;15.30;nan
7309;BME280;3695;53.330;9.876;2023-08-12T08:50:28;100420.75;;;15.21;nan
7309;BME280;3695;53.330;9.876;2023-08-12T08:52:56;100364.59;;;15.30;nan
7309;BME280;3695;53.330;9.876;2023-08-12T08:55:23;100306.75;;;15.38;nan
7309;BME280;3695;53.330;9.876;2023-08-12T08:57:49;100275.56;;;15.29;nan
7309;BME280;3695;53.330;9.876;2023-08-12T09:00:16;100227.53;;;15.33;nan
7309;BME280;3695;53.330;9.876;2023-08-12T09:02:44;100222.66;;;15.40;nan
7309;BME280;3695;53.330;9.876;2023-08-12T09:05:14;100275.47;;;15.14;nan
7309;BME280;3695;53.330;9.876;2023-08-12T09:07:42;100249.81;;;15.15;nan
7309;BME280;3695;53.330;9.876;2023-08-12T09:10:10;100267.34;;;15.24;nan
7309;BME280;3695;53.330;9.876;2023-08-12T09:12:37;100247.72;;;15.27;nan
7309;BME280;3695;53.330;9.876;2023-08-12T09:15:04;100253.72;;;15.29;nan
7309;BME280;3695;53.330;9.876;2023-08-12T09:17:32;100255.00;;;15.16;nan
7309;BME280;3695;53.330;9.876;2023-08-12T09:19:58;100271.00;;;15.39;nan
7309;BME280;3695;53.330;9.876;2023-08-12T09:22:26;100280.03;;;15.45;nan
7309;BME280;3695;53.330;9.876;2023-08-12T09:24:56;100294.59;;;15.56;nan
7309;BME280;3695;53.330;9.876;2023-08-12T09:27:23;100280.63;;;15.52;nan
7309;BME280;3695;53.330;9.876;2023-08-12T09:29:51;100244.66;;;15.60;nan
7309;BME280;3695;53.330;9.876;2023-08-12T09:32:21;100219.94;;;15.82;nan
7309;BME280;3695;53.330;9.876;2023-08-12T09:34:50;100265.47;;;15.61;nan
7309;BME280;3695;53.330;9.876;2023-08-12T09:37:17;100197.28;;;15.92;nan
7309;BME280;3695;53.330;9.876;2023-08-12T09:39:46;100061.47;;;15.92;nan
7309;BME280;3695;53.330;9.876;2023-08-12T09:42:13;100007.63;;;16.08;nan
7309;BME280;3695;53.330;9.876;2023-08-12T09:44:40;99976.97;;;15.60;nan
7309;BME280;3695;53.330;9.876;2023-08-12T09:47:07;99952.06;;;15.26;nan
7309;BME280;3695;53.330;9.876;2023-08-12T09:49:34;99991.06;;;15.17;nan
7309;BME280;3695;53.330;9.876;2023-08-12T09:52:02;99923.72;;;15.58;nan
7309;BME280;3695;53.330;9.876;2023-08-12T09:54:30;99906.00;;;15.81;nan
7309;BME280;3695;53.330;9.876;2023-08-12T09:56:59;100004.06;;;15.87;nan
7309;BME280;3695;53.330;9.876;2023-08-12T09:59:29;100023.47;;;15.65;nan
7309;BME280;3695;53.330;9.876;2023-08-12T10:01:57;100092.56;;;15.61;nan
7309;BME280;3695;53.330;9.876;2023-08-12T10:04:33;100049.16;;;15.74;nan
7309;BME280;3695;53.330;9.876;2023-08-12T10:07:02;100027.03;;;15.86;nan
7309;BME280;3695;53.330;9.876;2023-08-12T10:09:29;99941.50;;;16.01;nan
7309;BME280;3695;53.330;9.876;2023-08-12T10:11:58;99876.97;;;16.20;nan
7309;BME280;3695;53.330;9.876;2023-08-12T10:14:25;99863.94;;;15.77;nan
7309;BME280;3695;53.330;9.876;2023-08-12T10:16:52;99804.91;;;15.81;nan
7309;BME280;3695;53.330;9.876;2023-08-12T10:19:20;99852.72;;;15.78;nan
7309;BME280;3695;53.330;9.876;2023-08-12T10:21:48;99844.53;;;15.78;nan
7309;BME280;3695;53.330;9.876;2023-08-12T10:24:16;99819.09;;;15.57;nan
7309;BME280;3695;53.330;9.876;2023-08-12T10:26:42;99794.25;;;15.84;nan
7309;BME280;3695;53.330;9.876;2023-08-12T10:29:11;99758.91;;;16.03;nan
7309;BME280;3695;53.330;9.876;2023-08-12T10:31:38;99819.06;;;15.98;nan
7309;BME280;3695;53.330;9.876;2023-08-12T10:34:04;99804.84;;;16.01;nan
7309;BME280;3695;53.330;9.876;2023-08-12T10:36:31;99798.59;;;15.85;nan
7309;BME280;3695;53.330;9.876;2023-08-12T10:39:00;99777.00;;;15.94;nan
7309;BME280;3695;53.330;9.876;2023-08-12T10:41:26;99712.31;;;16.33;nan
7309;BME280;3695;53.330;9.876;2023-08-12T10:43:54;99688.88;;;16.22;nan
7309;BME280;3695;53.330;9.876;2023-08-12T10:48:56;99671.47;;;16.47;nan
7309;BME280;3695;53.330;9.876;2023-08-12T10:51:39;99655.34;;;16.46;nan
7309;BME280;3695;53.330;9.876;2023-08-12T10:54:16;99756.28;;;15.83;nan
7309;BME280;3695;53.330;9.876;2023-08-12T10:57:05;99722.88;;;15.96;nan
7309;BME280;3695;53.330;9.876;2023-08-12T10:59:51;99727.75;;;16.09;nan
7309;BME280;3695;53.330;9.876;2023-08-12T11:02:20;99761.66;;;16.03;nan
7309;BME280;3695;53.330;9.876;2023-08-12T11:04:54;99777.59;;;15.76;nan
7309;BME280;3695;53.330;9.876;2023-08-12T11:07:32;99835.78;;;15.81;nan
7309;BME280;3695;53.330;9.876;2023-08-12T11:10:00;99871.31;;;15.66;nan
7309;BME280;3695;53.330;9.876;2023-08-12T11:12:30;99868.84;;;15.64;nan
7309;BME280;3695;53.330;9.876;2023-08-12T11:14:58;99858.47;;;15.77;nan
7309;BME280;3695;53.330;9.876;2023-08-12T11:17:29;99896.16;;;15.64;nan
7309;BME280;3695;53.330;9.876;2023-08-12T11:19:59;99885.50;;;15.88;nan
7309;BME280;3695;53.330;9.876;2023-08-12T11:22:25;99889.28;;;15.97;nan
7309;BME280;3695;53.330;9.876;2023-08-12T11:24:53;99928.09;;;15.59;nan
7309;BME280;3695;53.330;9.876;2023-08-12T11:27:19;99906.53;;;15.72;nan
7309;BME280;3695;53.330;9.876;2023-08-12T11:29:46;99938.78;;;15.86;nan
7309;BME280;3695;53.330;9.876;2023-08-12T11:32:12;99969.38;;;15.72;nan
7309;BME280;3695;53.330;9.876;2023-08-12T11:34:40;99935.78;;;15.82;nan
7309;BME280;3695;53.330;9.876;2023-08-12T11:37:06;99961.19;;;15.88;nan
7309;BME280;3695;53.330;9.876;2023-08-12T11:39:33;99969.91;;;15.90;nan
7309;BME280;3695;53.330;9.876;2023-08-12T11:42:00;99995.34;;;15.90;nan
7309;BME280;3695;53.330;9.876;2023-08-12T11:44:27;100106.91;;;15.46;nan
7309;BME280;3695;53.330;9.876;2023-08-12T11:46:53;100103.50;;;15.66;nan
7309;BME280;3695;53.330;9.876;2023-08-12T11:49:20;100181.41;;;15.31;nan
7309;BME280;3695;53.330;9.876;2023-08-12T11:51:48;100225.38;;;15.35;nan
7309;BME280;3695;53.330;9.876;2023-08-12T11:54:15;100233.72;;;15.60;nan
7309;BME280;3695;53.330;9.876;2023-08-12T11:56:43;100292.06;;;15.44;nan
7309;BME280;3695;53.330;9.876;2023-08-12T11:59:09;100382.88;;;15.02;nan
7309;BME280;3695;53.330;9.876;2023-08-12T12:01:36;100459.38;;;15.12;nan
7309;BME280;3695;53.330;9.876;2023-08-12T12:04:03;100471.22;;;15.45;nan
7309;BME280;3695;53.330;9.876;2023-08-12T12:06:31;100432.69;;;15.68;nan
7309;BME280;3695;53.330;9.876;2023-08-12T12:09:05;100352.97;;;15.77;nan
7309;BME280;3695;53.330;9.876;2023-08-12T12:11:35;100287.50;;;16.02;nan
7309;BME280;3695;53.330;9.876;2023-08-12T12:14:02;100200.09;;;16.12;nan
7309;BME280;3695;53.330;9.876;2023-08-12T12:16:37;100182.09;;;16.26;nan
7309;BME280;3695;53.330;9.876;2023-08-12T12:19:04;100144.34;;;16.33;nan
7309;BME280;3695;53.330;9.876;2023-08-12T12:21:38;100086.94;;;16.18;nan
7309;BME280;3695;53.330;9.876;2023-08-12T12:24:07;100085.56;;;16.26;nan
7309;BME280;3695;53.330;9.876;2023-08-12T12:26:34;100100.88;;;16.12;nan
7309;BME280;3695;53.330;9.876;2023-08-12T12:29:01;100193.00;;;16.16;nan
7309;BME280;3695;53.330;9.876;2023-08-12T12:31:28;100260.44;;;15.95;nan
7309;BME280;3695;53.330;9.876;2023-08-12T12:33:54;100278.22;;;16.03;nan
7309;BME280;3695;53.330;9.876;2023-08-12T12:36:21;100355.75;;;15.87;nan
7309;BME280;3695;53.330;9.876;2023-08-12T12:38:47;100356.56;;;15.82;nan
7309;BME280;3695;53.330;9.876;2023-08-12T12:41:15;100369.38;;;15.82;nan
7309;BME280;3695;53.330;9.876;2023-08-12T12:43:42;100425.44;;;15.84;nan
7309;BME280;3695;53.330;9.876;2023-08-12T12:46:08;100412.38;;;15.96;nan
7309;BME280;3695;53.330;9.876;2023-08-12T12:48:35;100397.09;;;16.00;nan
7309;BME280;3695;53.330;9.876;2023-08-12T12:51:02;100404.38;;;16.22;nan
7309;BME280;3695;53.330;9.876;2023-08-12T12:53:28;100413.91;;;16.19;nan
7309;BME280;3695;53.330;9.876;2023-08-12T12:55:54;100366.41;;;16.30;nan
7309;BME280;3695;53.330;9.876;2023-08-12T12:58:24;100430.69;;;16.33;nan
7309;BME280;3695;53.330;9.876;2023-08-12T13:00:50;100384.38;;;16.16;nan
7309;BME280;3695;53.330;9.876;2023-08-12T13:03:16;100415.16;;;16.01;nan
7309;BME280;3695;53.330;9.876;2023-08-12T13:06:04;100463.41;;;15.86;nan
7309;BME280;3695;53.330;9.876;2023-08-12T13:08:30;100504.31;;;15.76;nan
7309;BME280;3695;53.330;9.876;2023-08-12T13:10:57;100481.44;;;15.82;nan
7309;BME280;3695;53.330;9.876;2023-08-12T13:13:25;100533.59;;;15.80;nan
7309;BME280;3695;53.330;9.876;2023-08-12T13:15:51;100542.31;;;15.77;nan
7309;BME280;3695;53.330;9.876;2023-08-12T13:18:18;100559.06;;;15.86;nan
7309;BME280;3695;53.330;9.876;2023-08-12T13:20:44;100622.75;;;15.86;nan
7309;BME280;3695;53.330;9.876;2023-08-12T13:23:11;100569.69;;;16.09;nan
7309;BME280;3695;53.330;9.876;2023-08-12T13:25:38;100443.25;;;16.34;nan
7309;BME280;3695;53.330;9.876;2023-08-12T13:28:05;100475.41;;;16.59;nan
7309;BME280;3695;53.330;9.876;2023-08-12T13:30:33;100322.22;;;16.59;nan
7309;BME280;3695;53.330;9.876;2023-08-12T13:32:59;100260.16;;;16.75;nan
7309;BME280;3695;53.330;9.876;2023-08-12T13:35:26;100223.72;;;16.64;nan
7309;BME280;3695;53.330;9.876;2023-08-12T13:37:52;100257.09;;;16.56;nan